createdAt,value
2018-05-07T00:02:24.984Z,10.10
2018-05-07T00:04:51.064Z,10.00
2018-05-07T00:07:17.165Z,9.90
2018-05-07T00:09:43.373Z,10.00
2018-05-07T00:12:09.463Z,10.00
2018-05-07T00:14:36.272Z,9.90
2018-05-07T00:17:02.369Z,9.90
2018-05-07T00:19:28.440Z,9.90
2018-05-07T00:21:54.533Z,9.90
2018-05-07T00:24:21.360Z,10.00
2018-05-07T00:26:47.447Z,10.00
2018-05-07T00:29:13.577Z,10.00
2018-05-07T00:31:39.671Z,9.90
2018-05-07T00:34:05.755Z,9.90
2018-05-07T00:36:31.856Z,9.90
2018-05-07T00:38:57.935Z,9.70
2018-05-07T00:41:24.017Z,9.70
2018-05-07T00:43:50.104Z,9.50
2018-05-07T00:46:16.184Z,9.50
2018-05-07T00:48:42.274Z,9.40
2018-05-07T00:51:09.093Z,9.30
2018-05-07T00:53:35.167Z,9.30
2018-05-07T00:56:01.240Z,9.30
2018-05-07T00:58:27.329Z,9.30
2018-05-07T01:00:54.145Z,9.30
2018-05-07T01:03:20.245Z,9.20
2018-05-07T01:05:46.314Z,9.30
2018-05-07T01:08:12.396Z,9.20
2018-05-07T01:10:39.204Z,9.20
2018-05-07T01:13:06.035Z,9.10
2018-05-07T01:15:32.100Z,9.10
2018-05-07T01:17:58.201Z,9.10
2018-05-07T01:20:24.343Z,9.00
2018-05-07T01:22:50.407Z,9.00
2018-05-07T01:25:16.493Z,9.00
2018-05-07T01:27:43.301Z,8.80
2018-05-07T01:30:09.409Z,8.80
2018-05-07T01:32:35.484Z,8.80
2018-05-07T01:35:01.593Z,8.80
2018-05-07T01:37:27.660Z,8.70
2018-05-07T01:39:54.524Z,8.70
2018-05-07T01:42:20.601Z,8.70
2018-05-07T01:44:47.444Z,8.70
2018-05-07T01:47:13.489Z,8.80
2018-05-07T01:49:40.313Z,8.60
2018-05-07T01:52:06.365Z,8.60
2018-05-07T01:54:32.454Z,8.50
2018-05-07T01:56:58.517Z,8.40
2018-05-07T01:59:24.608Z,8.40
2018-05-07T02:01:50.711Z,8.30
2018-05-07T02:04:16.760Z,8.30
2018-05-07T02:06:43.552Z,8.10
2018-05-07T02:09:09.632Z,8.10
2018-05-07T02:11:35.680Z,8.00
2018-05-07T02:14:01.776Z,7.90
2018-05-07T02:16:27.820Z,8.00
2018-05-07T02:18:53.900Z,7.90
2018-05-07T02:21:19.945Z,7.90
2018-05-07T02:23:46.757Z,7.90
2018-05-07T02:26:12.796Z,7.80
2018-05-07T02:28:38.860Z,7.80
2018-05-07T02:31:04.931Z,7.80
2018-05-07T02:33:31.040Z,7.70
2018-05-07T02:35:57.886Z,7.70
2018-05-07T02:38:23.949Z,7.70
2018-05-07T02:40:50.741Z,7.60
2018-05-07T02:43:16.835Z,7.60
2018-05-07T02:45:42.908Z,7.60
2018-05-07T02:48:08.961Z,7.60
2018-05-07T02:50:35.061Z,7.50
2018-05-07T02:53:01.144Z,7.50
2018-05-07T02:55:27.205Z,7.50
2018-05-07T02:57:53.304Z,7.50
2018-05-07T03:00:19.365Z,7.50
2018-05-07T03:02:45.421Z,7.40
2018-05-07T03:05:12.255Z,7.30
2018-05-07T03:07:38.317Z,7.30
2018-05-07T03:10:05.174Z,7.20
2018-05-07T03:12:31.976Z,7.10
2018-05-07T03:14:58.033Z,7.10
2018-05-07T03:17:24.088Z,7.10
2018-05-07T03:19:50.177Z,7.10
2018-05-07T03:22:16.219Z,7.00
2018-05-07T03:24:42.310Z,6.90
2018-05-07T03:27:08.372Z,6.90
2018-05-07T03:29:34.420Z,6.80
2018-05-07T03:32:00.557Z,6.70
2018-05-07T03:34:26.637Z,6.70
2018-05-07T03:36:52.718Z,6.70
2018-05-07T03:39:18.814Z,6.70
2018-05-07T03:41:44.888Z,6.70
2018-05-07T03:44:11.698Z,6.70
2018-05-07T03:46:37.793Z,6.70
2018-05-07T03:49:03.892Z,6.70
2018-05-07T03:51:29.942Z,6.60
2018-05-07T03:53:55.988Z,6.60
2018-05-07T03:56:22.801Z,6.50
2018-05-07T03:58:48.938Z,6.50
2018-05-07T04:01:15.049Z,6.50
2018-05-07T04:03:41.101Z,6.50
2018-05-07T04:06:07.984Z,6.50
2018-05-07T04:08:34.081Z,6.50
2018-05-07T04:11:00.125Z,6.50
2018-05-07T04:13:26.205Z,6.50
2018-05-07T04:15:52.264Z,6.50
2018-05-07T04:18:31.580Z,6.60
2018-05-07T04:21:10.068Z,6.60
2018-05-07T04:23:48.515Z,6.60
2018-05-07T04:26:14.598Z,6.60
2018-05-07T04:28:40.685Z,6.70
2018-05-07T04:31:06.800Z,6.60
2018-05-07T04:33:33.608Z,6.60
2018-05-07T04:35:59.676Z,6.60
2018-05-07T04:38:26.496Z,6.70
2018-05-07T04:40:52.560Z,6.70
2018-05-07T04:43:19.388Z,7.00
2018-05-07T04:45:45.442Z,6.90
2018-05-07T04:48:11.507Z,7.10
2018-05-07T04:50:37.624Z,7.20
2018-05-07T04:53:04.427Z,7.30
2018-05-07T04:55:30.478Z,7.30
2018-05-07T04:57:56.555Z,7.40
2018-05-07T05:00:22.629Z,7.40
2018-05-07T05:02:48.677Z,7.50
2018-05-07T05:05:14.760Z,7.60
2018-05-07T05:07:40.804Z,7.80
2018-05-07T05:10:07.601Z,8.10
2018-05-07T05:12:33.676Z,8.10
2018-05-07T05:14:59.744Z,8.30
2018-05-07T05:17:26.609Z,8.60
2018-05-07T05:19:53.399Z,8.80
2018-05-07T05:22:19.497Z,8.80
2018-05-07T05:24:46.296Z,9.10
2018-05-07T05:27:12.340Z,9.10
2018-05-07T05:29:38.416Z,9.20
2018-05-07T05:32:04.463Z,9.40
2018-05-07T05:34:31.257Z,9.60
2018-05-07T05:36:57.343Z,9.50
2018-05-07T05:39:23.388Z,9.70
2018-05-07T05:41:50.185Z,10.00
2018-05-07T05:44:16.268Z,10.00
2018-05-07T05:46:42.325Z,10.20
2018-05-07T05:49:08.478Z,10.30
2018-05-07T05:51:34.532Z,10.50
2018-05-07T05:54:00.620Z,10.70
2018-05-07T05:56:26.875Z,10.90
2018-05-07T05:58:52.835Z,10.90
2018-05-07T06:01:18.911Z,11.00
2018-05-07T06:03:44.979Z,11.20
2018-05-07T06:06:11.048Z,11.40
2018-05-07T06:08:37.093Z,11.60
2018-05-07T06:11:03.929Z,12.00
2018-05-07T06:13:30.010Z,11.90
2018-05-07T06:15:56.064Z,12.10
2018-05-07T06:18:22.144Z,12.20
2018-05-07T06:20:48.237Z,12.30
2018-05-07T06:23:14.300Z,12.50
2018-05-07T06:25:40.349Z,12.60
2018-05-07T06:28:06.437Z,12.70
2018-05-07T06:30:32.497Z,12.90
2018-05-07T06:32:59.393Z,13.20
2018-05-07T06:35:25.445Z,13.20
2018-05-07T06:37:51.537Z,13.40
2018-05-07T06:40:18.328Z,13.50
2018-05-07T06:42:44.405Z,13.50
2018-05-07T06:45:10.465Z,13.60
2018-05-07T06:47:37.280Z,13.90
2018-05-07T06:50:03.372Z,13.80
2018-05-07T06:52:29.433Z,14.00
2018-05-07T06:54:55.490Z,14.10
2018-05-07T06:57:21.596Z,14.20
2018-05-07T06:59:47.652Z,14.30
2018-05-07T07:02:13.777Z,14.40
2018-05-07T07:04:39.772Z,14.40
2018-05-07T07:07:05.852Z,14.50
2018-05-07T07:09:31.917Z,14.60
2018-05-07T07:11:57.993Z,14.60
2018-05-07T07:14:24.048Z,14.70
2018-05-07T07:16:50.132Z,14.80
2018-05-07T07:19:16.186Z,14.90
2018-05-07T07:21:42.309Z,14.90
2018-05-07T07:24:08.341Z,15.00
2018-05-07T07:26:34.396Z,15.10
2018-05-07T07:29:00.453Z,15.20
2018-05-07T07:31:27.237Z,15.30
2018-05-07T07:33:53.476Z,15.20
2018-05-07T07:36:19.444Z,15.40
2018-05-07T07:38:45.524Z,15.40
2018-05-07T07:41:11.560Z,15.40
2018-05-07T07:43:38.391Z,15.70
2018-05-07T07:46:04.431Z,15.70
2018-05-07T07:48:30.493Z,15.80
2018-05-07T07:50:56.576Z,15.90
2018-05-07T07:53:22.705Z,16.00
2018-05-07T07:55:48.712Z,16.00
2018-05-07T07:58:15.531Z,16.20
2018-05-07T08:00:41.612Z,16.20
2018-05-07T08:03:08.401Z,16.40
2018-05-07T08:05:34.485Z,16.40
2018-05-07T08:08:01.282Z,16.60
2018-05-07T08:10:27.386Z,16.60
2018-05-07T08:12:54.238Z,16.90
2018-05-07T08:15:20.328Z,16.90
2018-05-07T08:17:46.445Z,17.00
2018-05-07T08:20:12.517Z,17.10
2018-05-07T08:22:38.559Z,17.20
2018-05-07T08:25:04.655Z,17.20
2018-05-07T08:27:30.736Z,17.20
2018-05-07T08:29:56.937Z,17.30
2018-05-07T08:32:23.007Z,17.40
2018-05-07T08:34:49.105Z,17.40
2018-05-07T08:37:15.198Z,17.40
2018-05-07T08:39:41.261Z,17.50
2018-05-07T08:42:08.081Z,17.80
2018-05-07T08:44:34.148Z,17.70
2018-05-07T08:47:00.227Z,17.90
2018-05-07T08:49:26.286Z,18.10
2018-05-07T08:51:52.332Z,18.20
2018-05-07T08:54:18.397Z,18.40
2018-05-07T08:56:45.234Z,18.40
2018-05-07T08:59:11.280Z,18.40
2018-05-07T09:01:38.087Z,18.60
2018-05-07T09:04:04.177Z,18.60
2018-05-07T09:06:30.965Z,18.60
2018-05-07T09:08:57.021Z,18.50
2018-05-07T09:11:23.100Z,18.70
2018-05-07T09:13:49.992Z,18.90
2018-05-07T09:16:16.060Z,18.80
2018-05-07T09:18:42.121Z,19.00
2018-05-07T09:21:08.209Z,19.10
2018-05-07T09:23:34.253Z,19.20
2018-05-07T09:26:00.360Z,19.20
2018-05-07T09:28:27.145Z,19.40
2018-05-07T09:30:53.193Z,19.40
2018-05-07T09:33:19.272Z,19.50
2018-05-07T09:35:45.361Z,19.50
2018-05-07T09:38:11.412Z,19.70
2018-05-07T09:40:37.513Z,19.70
2018-05-07T09:43:03.686Z,19.70
2018-05-07T09:45:29.649Z,19.70
2018-05-07T09:47:55.728Z,19.70
2018-05-07T09:50:21.817Z,19.70
2018-05-07T09:52:47.876Z,19.80
2018-05-07T09:55:13.948Z,19.90
2018-05-07T09:57:52.369Z,20.10
2018-05-07T10:00:18.510Z,20.20
2018-05-07T10:02:44.557Z,20.30
2018-05-07T10:05:10.618Z,20.30
2018-05-07T10:07:36.688Z,20.50
2018-05-07T10:10:02.753Z,20.60
2018-05-07T10:12:28.807Z,20.60
2018-05-07T10:14:54.897Z,20.80
2018-05-07T10:17:20.945Z,20.80
2018-05-07T10:19:47.736Z,21.00
2018-05-07T10:22:13.870Z,20.90
2018-05-07T10:24:39.946Z,21.10
2018-05-07T10:27:06.017Z,21.10
2018-05-07T10:29:32.101Z,21.20
2018-05-07T10:31:58.192Z,21.10
2018-05-07T10:34:24.996Z,21.10
2018-05-07T10:36:51.068Z,21.10
2018-05-07T10:39:17.173Z,21.10
2018-05-07T10:41:43.259Z,21.10
2018-05-07T10:44:09.317Z,21.40
2018-05-07T10:46:35.397Z,21.50
2018-05-07T10:49:01.460Z,21.80
2018-05-07T10:51:27.537Z,21.80
2018-05-07T10:53:53.580Z,21.70
2018-05-07T10:56:19.624Z,21.80
2018-05-07T10:58:45.696Z,22.00
2018-05-07T11:01:11.736Z,22.10
2018-05-07T11:03:37.833Z,22.20
2018-05-07T11:06:03.968Z,22.10
2018-05-07T11:08:30.045Z,22.00
2018-05-07T11:10:56.133Z,22.10
2018-05-07T11:13:22.188Z,22.00
2018-05-07T11:15:48.223Z,22.00
2018-05-07T11:18:14.304Z,21.70
2018-05-07T11:20:40.345Z,21.70
2018-05-07T11:23:07.163Z,22.00
2018-05-07T11:25:33.209Z,22.00
2018-05-07T11:27:59.281Z,22.20
2018-05-07T11:30:25.372Z,22.40
2018-05-07T11:32:51.466Z,22.50
2018-05-07T11:35:18.265Z,22.70
2018-05-07T11:37:44.329Z,22.70
2018-05-07T11:40:10.384Z,22.80
2018-05-07T11:42:37.188Z,22.90
2018-05-07T11:45:03.308Z,22.90
2018-05-07T11:47:29.412Z,22.90
2018-05-07T11:49:55.456Z,22.90
2018-05-07T11:52:22.247Z,23.40
2018-05-07T11:54:48.309Z,23.30
2018-05-07T11:57:14.409Z,23.20
2018-05-07T11:59:40.490Z,23.00
2018-05-07T12:02:06.550Z,23.00
2018-05-07T12:04:32.658Z,23.30
2018-05-07T12:06:58.718Z,23.20
2018-05-07T12:09:24.765Z,23.30
2018-05-07T12:11:50.833Z,23.30
2018-05-07T12:14:16.868Z,23.40
2018-05-07T12:16:42.940Z,23.40
2018-05-07T12:19:08.997Z,23.30
2018-05-07T12:21:35.082Z,23.40
2018-05-07T12:24:01.137Z,23.80
2018-05-07T12:26:27.250Z,23.70
2018-05-07T12:28:53.297Z,23.60
2018-05-07T12:31:19.459Z,23.90
2018-05-07T12:33:45.424Z,24.30
2018-05-07T12:36:11.517Z,24.20
2018-05-07T12:38:37.611Z,24.40
2018-05-07T12:41:03.662Z,24.70
2018-05-07T12:43:29.744Z,24.60
2018-05-07T12:45:55.824Z,24.60
2018-05-07T12:48:22.620Z,24.60
2018-05-07T12:50:48.698Z,24.60
2018-05-07T12:53:14.782Z,24.80
2018-05-07T12:55:40.824Z,24.70
2018-05-07T12:58:06.913Z,24.60
2018-05-07T13:00:32.957Z,24.90
2018-05-07T13:02:59.041Z,24.80
2018-05-07T13:05:25.117Z,25.00
2018-05-07T13:07:51.205Z,25.20
2018-05-07T13:10:17.257Z,25.60
2018-05-07T13:12:43.328Z,25.70
2018-05-07T13:15:09.400Z,25.60
2018-05-07T13:17:35.464Z,25.60
2018-05-07T13:20:01.533Z,26.00
2018-05-07T13:22:27.625Z,25.90
2018-05-07T13:24:53.744Z,25.90
2018-05-07T13:27:19.787Z,26.10
2018-05-07T13:29:46.589Z,26.30
2018-05-07T13:32:12.633Z,26.20
2018-05-07T13:34:38.709Z,26.90
2018-05-07T13:37:05.503Z,28.90
2018-05-07T13:39:31.584Z,28.90
2018-05-07T13:41:57.674Z,29.90
2018-05-07T13:44:23.741Z,30.50
2018-05-07T13:46:49.809Z,31.40
2018-05-07T13:49:15.852Z,31.80
2018-05-07T13:51:42.690Z,32.20
2018-05-07T13:54:08.747Z,32.20
2018-05-07T13:56:35.544Z,32.80
2018-05-07T13:59:01.632Z,32.70
2018-05-07T14:01:28.506Z,32.90
2018-05-07T14:03:54.584Z,32.90
2018-05-07T14:06:20.634Z,33.40
2018-05-07T14:08:46.713Z,33.40
2018-05-07T14:11:13.505Z,33.30
2018-05-07T14:13:39.556Z,33.30
2018-05-07T14:16:05.708Z,33.30
2018-05-07T14:18:31.780Z,33.60
2018-05-07T14:20:58.569Z,33.20
2018-05-07T14:23:24.613Z,33.20
2018-05-07T14:25:50.704Z,33.10
2018-05-07T14:28:17.507Z,32.60
2018-05-07T14:30:43.584Z,32.50
2018-05-07T14:33:10.397Z,33.30
2018-05-07T14:35:36.461Z,33.30
2018-05-07T14:38:02.545Z,33.10
2018-05-07T14:40:28.632Z,33.00
2018-05-07T14:42:54.733Z,33.60
2018-05-07T14:45:21.544Z,34.70
2018-05-07T14:47:48.340Z,34.40
2018-05-07T14:50:14.438Z,34.40
2018-05-07T14:52:40.588Z,34.50
2018-05-07T14:55:07.406Z,34.90
2018-05-07T14:57:33.482Z,34.80
2018-05-07T15:00:00.270Z,35.70
2018-05-07T15:02:26.389Z,35.70
2018-05-07T15:04:52.454Z,35.40
2018-05-07T15:07:18.549Z,35.10
2018-05-07T15:09:45.361Z,35.50
2018-05-07T15:12:11.437Z,35.40
2018-05-07T15:14:38.249Z,35.10
2018-05-07T15:17:04.301Z,35.10
2018-05-07T15:19:30.413Z,34.90
2018-05-07T15:21:56.496Z,35.20
2018-05-07T15:24:23.285Z,35.50
2018-05-07T15:26:49.368Z,35.40
2018-05-07T15:29:15.486Z,35.80
2018-05-07T15:31:42.280Z,35.60
2018-05-07T15:34:08.372Z,35.60
2018-05-07T15:36:34.412Z,35.30
2018-05-07T15:39:00.504Z,35.30
2018-05-07T15:41:27.292Z,35.00
2018-05-07T15:43:53.502Z,34.90
2018-05-07T15:46:19.505Z,35.20
2018-05-07T15:48:45.572Z,35.30
2018-05-07T15:51:11.794Z,35.70
2018-05-07T15:53:37.957Z,34.70
2018-05-07T15:56:04.164Z,34.80
2018-05-07T15:58:30.207Z,35.10
2018-05-07T16:00:56.292Z,35.10
2018-05-07T16:03:22.410Z,34.70
2018-05-07T16:05:48.492Z,34.40
2018-05-07T16:08:14.577Z,35.40
2018-05-07T16:10:41.429Z,35.80
2018-05-07T16:13:07.596Z,35.80
2018-05-07T16:15:34.069Z,35.70
2018-05-07T16:18:00.057Z,35.30
2018-05-07T16:20:26.937Z,35.10
2018-05-07T16:22:52.979Z,35.10
2018-05-07T16:25:19.066Z,35.00
2018-05-07T16:27:45.122Z,35.40
2018-05-07T16:30:11.916Z,34.80
2018-05-07T16:32:38.037Z,34.80
2018-05-07T16:35:04.101Z,34.50
2018-05-07T16:37:30.915Z,35.00
2018-05-07T16:39:56.968Z,34.90
2018-05-07T16:42:23.036Z,34.50
2018-05-07T16:44:49.077Z,34.40
2018-05-07T16:47:15.144Z,34.80
2018-05-07T16:49:41.201Z,34.60
2018-05-07T16:52:07.381Z,34.60
2018-05-07T16:54:33.636Z,34.50
2018-05-07T16:56:59.849Z,34.10
2018-05-07T16:59:25.989Z,34.30
2018-05-07T17:01:52.138Z,34.50
2018-05-07T17:04:18.336Z,34.50
2018-05-07T17:06:45.293Z,34.70
2018-05-07T17:09:11.201Z,34.70
2018-05-07T17:11:37.305Z,34.50
2018-05-07T17:14:03.412Z,34.90
2018-05-07T17:16:30.339Z,34.20
2018-05-07T17:18:56.498Z,34.20
2018-05-07T17:21:23.294Z,34.00
2018-05-07T17:23:49.399Z,34.00
2018-05-07T17:26:16.218Z,33.80
2018-05-07T17:28:42.273Z,33.80
2018-05-07T17:31:09.260Z,33.50
2018-05-07T17:33:35.469Z,33.50
2018-05-07T17:36:02.410Z,33.40
2018-05-07T17:38:28.477Z,33.40
2018-05-07T17:40:55.301Z,33.10
2018-05-07T17:43:21.453Z,33.10
2018-05-07T17:45:59.976Z,32.70
2018-05-07T17:48:38.285Z,32.60
2018-05-07T17:51:04.451Z,32.40
2018-05-07T17:53:30.618Z,32.70
2018-05-07T17:55:57.413Z,32.30
2018-05-07T17:58:23.490Z,32.30
2018-05-07T18:00:49.541Z,32.10
2018-05-07T18:03:16.356Z,31.50
2018-05-07T18:05:42.459Z,31.50
2018-05-07T18:08:08.556Z,31.00
2018-05-07T18:10:34.749Z,30.70
2018-05-07T18:13:00.708Z,30.60
2018-05-07T18:15:26.780Z,30.00
2018-05-07T18:17:53.620Z,28.90
2018-05-07T18:20:19.725Z,28.90
2018-05-07T18:22:45.814Z,28.70
2018-05-07T18:25:12.660Z,27.50
2018-05-07T18:27:38.718Z,27.40
2018-05-07T18:30:04.860Z,26.40
2018-05-07T18:32:31.078Z,25.30
2018-05-07T18:34:56.996Z,24.40
2018-05-07T18:37:23.088Z,23.80
2018-05-07T18:39:49.133Z,23.10
2018-05-07T18:42:15.173Z,22.50
2018-05-07T18:44:41.248Z,22.20
2018-05-07T18:47:07.416Z,21.70
2018-05-07T18:49:34.236Z,20.80
2018-05-07T18:52:00.482Z,20.80
2018-05-07T18:54:26.514Z,20.50
2018-05-07T18:56:52.681Z,20.00
2018-05-07T18:59:19.621Z,19.20
2018-05-07T19:01:45.776Z,19.20
2018-05-07T19:04:12.580Z,18.70
2018-05-07T19:06:38.664Z,18.60
2018-05-07T19:09:05.533Z,18.20
2018-05-07T19:11:31.672Z,18.10
2018-05-07T19:13:57.820Z,17.90
2018-05-07T19:16:23.917Z,17.60
2018-05-07T19:18:50.073Z,17.50
2018-05-07T19:21:16.988Z,17.00
2018-05-07T19:23:43.073Z,17.00
2018-05-07T19:26:09.917Z,16.60
2018-05-07T19:28:36.082Z,16.50
2018-05-07T19:31:02.208Z,16.40
2018-05-07T19:33:28.356Z,16.20
2018-05-07T19:35:54.493Z,16.10
2018-05-07T19:38:20.568Z,15.90
2018-05-07T19:40:47.390Z,15.60
2018-05-07T19:43:13.467Z,15.60
2018-05-07T19:45:39.537Z,15.50
2018-05-07T19:48:05.743Z,15.50
2018-05-07T19:50:31.768Z,15.50
2018-05-07T19:52:57.830Z,15.40
2018-05-07T19:55:23.949Z,15.50
2018-05-07T19:57:50.006Z,15.50
2018-05-07T20:00:16.105Z,15.50
2018-05-07T20:02:42.158Z,15.40
2018-05-07T20:05:08.309Z,15.60
2018-05-07T20:07:34.383Z,15.70
2018-05-07T20:10:01.223Z,15.90
2018-05-07T20:12:27.375Z,15.90
2018-05-07T20:14:53.446Z,15.90
2018-05-07T20:17:19.602Z,15.90
2018-05-07T20:19:45.697Z,15.90
2018-05-07T20:22:11.809Z,15.90
2018-05-07T20:24:37.853Z,15.90
2018-05-07T20:27:03.953Z,15.80
2018-05-07T20:29:30.026Z,15.80
2018-05-07T20:31:56.113Z,15.90
2018-05-07T20:34:22.200Z,15.90
2018-05-07T20:36:48.276Z,15.80
2018-05-07T20:39:15.142Z,15.80
2018-05-07T20:41:41.253Z,15.80
2018-05-07T20:44:08.129Z,15.80
2018-05-07T20:46:34.225Z,15.80
2018-05-07T20:49:00.405Z,15.70
2018-05-07T20:51:26.560Z,15.70
2018-05-07T20:53:52.909Z,15.70
2018-05-07T20:56:19.765Z,15.60
2018-05-07T20:58:45.900Z,15.60
2018-05-07T21:01:11.957Z,15.50
2018-05-07T21:03:38.041Z,15.50
2018-05-07T21:06:04.864Z,15.50
2018-05-07T21:08:31.345Z,15.50
2018-05-07T21:10:58.205Z,15.40
2018-05-07T21:13:24.260Z,15.40
2018-05-07T21:15:50.340Z,15.30
2018-05-07T21:18:16.420Z,15.30
2018-05-07T21:20:42.545Z,15.30
2018-05-07T21:23:09.477Z,15.20
2018-05-07T21:25:35.576Z,15.20
2018-05-07T21:28:01.625Z,15.20
2018-05-07T21:30:27.693Z,15.20
2018-05-07T21:32:53.761Z,15.20
2018-05-07T21:35:20.550Z,15.10
2018-05-07T21:37:46.636Z,15.10
2018-05-07T21:40:13.487Z,15.00
2018-05-07T21:42:39.577Z,15.00
2018-05-07T21:45:05.628Z,15.00
2018-05-07T21:47:31.684Z,14.90
2018-05-07T21:49:57.748Z,14.90
2018-05-07T21:52:24.766Z,14.90
2018-05-07T21:54:50.853Z,14.90
2018-05-07T21:57:16.909Z,14.90
2018-05-07T21:59:42.958Z,14.80
2018-05-07T22:02:09.040Z,14.80
2018-05-07T22:04:35.382Z,14.70
2018-05-07T22:07:01.565Z,14.70
2018-05-07T22:09:27.607Z,14.70
2018-05-07T22:11:53.689Z,14.60
2018-05-07T22:14:19.778Z,14.60
2018-05-07T22:16:46.528Z,14.50
2018-05-07T22:19:12.588Z,14.50
2018-05-07T22:21:38.631Z,14.50
2018-05-07T22:24:04.721Z,14.50
2018-05-07T22:26:30.807Z,14.50
2018-05-07T22:28:56.845Z,14.50
2018-05-07T22:31:23.057Z,14.50
2018-05-07T22:33:49.121Z,14.40
2018-05-07T22:36:15.193Z,14.40
2018-05-07T22:38:42.001Z,14.30
2018-05-07T22:41:08.378Z,14.40
2018-05-07T22:43:35.221Z,14.20
2018-05-07T22:46:01.265Z,14.20
2018-05-07T22:48:27.349Z,14.20
2018-05-07T22:50:53.393Z,14.10
2018-05-07T22:53:19.444Z,14.00
2018-05-07T22:55:45.648Z,14.00
2018-05-07T22:58:12.473Z,13.80
2018-05-07T23:00:38.561Z,13.80
2018-05-07T23:03:04.708Z,13.80
2018-05-07T23:05:30.764Z,13.60
2018-05-07T23:07:56.804Z,13.50
2018-05-07T23:10:22.877Z,13.40
2018-05-07T23:12:48.912Z,13.30
2018-05-07T23:15:15.732Z,13.10
2018-05-07T23:17:41.832Z,13.10
2018-05-07T23:20:07.883Z,13.00
2018-05-07T23:22:33.964Z,12.90
2018-05-07T23:25:00.017Z,12.70
2018-05-07T23:27:26.164Z,12.60
2018-05-07T23:29:52.997Z,12.50
2018-05-07T23:32:19.071Z,12.40
2018-05-07T23:34:45.108Z,12.40
2018-05-07T23:37:11.177Z,12.30
2018-05-07T23:39:37.225Z,12.10
2018-05-07T23:42:03.292Z,12.10
2018-05-07T23:44:29.389Z,12.00
2018-05-07T23:46:55.445Z,11.90
2018-05-07T23:49:21.492Z,11.80
2018-05-07T23:51:47.565Z,11.60
2018-05-07T23:54:13.648Z,11.40
2018-05-07T23:56:39.704Z,11.30
2018-05-07T23:59:05.786Z,11.20
